createdAt,value
2023-04-06T00:02:04.756Z,62.29
2023-04-06T00:04:32.593Z,62.09
2023-04-06T00:07:00.643Z,62.15
2023-04-06T00:09:28.534Z,62.28
2023-04-06T00:11:56.508Z,62.37
2023-04-06T00:14:24.571Z,62.34
2023-04-06T00:16:52.415Z,62.52
2023-04-06T00:19:20.202Z,62.67
2023-04-06T00:21:48.161Z,62.66
2023-04-06T00:24:16.294Z,62.48
2023-04-06T00:26:44.134Z,62.30
2023-04-06T00:29:12.071Z,62.13
2023-04-06T00:31:39.932Z,61.99
2023-04-06T00:34:07.974Z,62.00
2023-04-06T00:36:36.195Z,62.03
2023-04-06T00:39:04.063Z,61.94
2023-04-06T00:41:32.010Z,61.95
2023-04-06T00:43:59.905Z,61.88
2023-04-06T00:46:27.746Z,61.86
2023-04-06T00:48:55.802Z,61.98
2023-04-06T00:51:23.889Z,62.10
2023-04-06T00:53:51.757Z,62.02
2023-04-06T00:56:19.527Z,61.95
2023-04-06T00:58:47.363Z,62.06
2023-04-06T01:01:15.180Z,62.17
2023-04-06T01:03:43.519Z,62.22
2023-04-06T01:06:11.437Z,62.20
2023-04-06T01:08:39.467Z,62.01
2023-04-06T01:11:07.276Z,62.00
2023-04-06T01:13:35.031Z,62.06
2023-04-06T01:16:04.232Z,62.15
2023-04-06T01:18:32.232Z,62.21
2023-04-06T01:21:00.831Z,62.17
2023-04-06T01:23:28.742Z,62.27
2023-04-06T01:25:56.577Z,62.42
2023-04-06T01:28:24.445Z,62.52
2023-04-06T01:30:52.428Z,62.59
2023-04-06T01:33:20.340Z,62.54
2023-04-06T01:35:48.311Z,62.49
2023-04-06T01:45:34.558Z,62.61
2023-04-06T01:48:02.357Z,62.42
2023-04-06T01:50:30.534Z,62.30
2023-04-06T01:52:58.662Z,62.41
2023-04-06T01:55:27.125Z,62.49
2023-04-06T01:57:54.872Z,62.49
2023-04-06T02:00:23.414Z,62.52
2023-04-06T02:02:51.475Z,62.48
2023-04-06T02:05:20.849Z,62.53
2023-04-06T02:07:48.700Z,62.57
2023-04-06T02:10:16.502Z,62.62
2023-04-06T02:12:44.320Z,62.72
2023-04-06T02:15:14.245Z,62.79
2023-04-06T02:17:42.813Z,62.91
2023-04-06T02:20:10.966Z,63.10
2023-04-06T02:22:38.761Z,63.06
2023-04-06T02:25:06.854Z,62.97
2023-04-06T02:27:34.822Z,63.09
2023-04-06T02:30:06.402Z,63.13
2023-04-06T02:32:34.226Z,63.30
2023-04-06T02:35:02.265Z,63.58
2023-04-06T02:37:30.514Z,63.78
2023-04-06T02:39:58.218Z,63.90
2023-04-06T02:42:26.212Z,64.00
2023-04-06T02:44:53.965Z,64.12
2023-04-06T02:47:21.951Z,64.27
2023-04-06T02:49:49.728Z,64.44
2023-04-06T02:52:18.945Z,64.63
2023-04-06T02:54:46.691Z,64.88
2023-04-06T02:57:14.465Z,65.10
2023-04-06T02:59:42.350Z,65.33
2023-04-06T03:02:10.465Z,65.46
2023-04-06T03:04:38.293Z,65.63
2023-04-06T03:07:06.397Z,65.82
2023-04-06T03:09:34.659Z,66.05
2023-04-06T03:12:02.780Z,66.22
2023-04-06T03:14:30.784Z,66.34
2023-04-06T03:16:58.569Z,66.45
2023-04-06T03:19:26.303Z,66.67
2023-04-06T03:21:54.101Z,66.82
2023-04-06T03:24:21.993Z,67.00
2023-04-06T03:26:50.196Z,67.19
2023-04-06T03:29:18.251Z,67.33
2023-04-06T03:31:46.238Z,67.48
2023-04-06T03:34:14.051Z,67.63
2023-04-06T03:36:41.969Z,67.82
2023-04-06T03:39:09.889Z,67.94
2023-04-06T03:41:37.914Z,68.08
2023-04-06T03:44:06.912Z,68.24
2023-04-06T03:46:34.780Z,68.51
2023-04-06T03:49:03.166Z,68.76
2023-04-06T03:51:30.915Z,68.94
2023-04-06T03:53:58.728Z,69.16
2023-04-06T03:56:27.466Z,69.31
2023-04-06T03:58:55.447Z,69.36
2023-04-06T04:01:23.362Z,69.45
2023-04-06T04:03:52.038Z,69.46
2023-04-06T04:06:20.073Z,69.49
2023-04-06T04:08:47.828Z,69.56
2023-04-06T04:11:17.066Z,69.50
2023-04-06T04:13:45.805Z,69.43
2023-04-06T04:16:13.722Z,69.48
2023-04-06T04:18:41.511Z,69.52
2023-04-06T04:21:09.505Z,69.44
2023-04-06T04:23:37.834Z,69.36
2023-04-06T04:26:06.110Z,69.42
2023-04-06T04:28:33.861Z,69.42
2023-04-06T04:31:01.924Z,69.49
2023-04-06T04:33:29.765Z,69.45
2023-04-06T04:35:57.937Z,69.43
2023-04-06T04:38:25.827Z,69.52
2023-04-06T04:40:53.622Z,69.34
2023-04-06T04:43:21.455Z,69.19
2023-04-06T04:45:49.171Z,69.17
2023-04-06T04:48:16.915Z,69.12
2023-04-06T04:50:44.852Z,69.10
2023-04-06T04:53:12.739Z,69.16
2023-04-06T04:55:40.418Z,68.81
2023-04-06T04:58:10.327Z,68.56
2023-04-06T05:00:38.183Z,68.24
2023-04-06T05:03:06.592Z,68.05
2023-04-06T05:05:34.567Z,68.06
2023-04-06T05:08:02.918Z,67.87
2023-04-06T05:10:30.698Z,67.87
2023-04-06T05:12:58.625Z,67.91
2023-04-06T05:15:26.660Z,67.80
2023-04-06T05:17:54.554Z,67.63
2023-04-06T05:20:22.584Z,67.45
2023-04-06T05:22:50.285Z,66.99
2023-04-06T05:25:18.118Z,66.40
2023-04-06T05:27:46.015Z,66.35
2023-04-06T05:30:14.117Z,66.06
2023-04-06T05:32:43.626Z,65.20
2023-04-06T05:35:12.402Z,65.17
2023-04-06T05:37:41.692Z,65.16
2023-04-06T05:40:10.579Z,64.67
2023-04-06T05:42:39.547Z,64.07
2023-04-06T05:45:09.700Z,63.65
2023-04-06T05:47:38.961Z,63.29
2023-04-06T05:50:07.274Z,62.61
2023-04-06T05:52:35.070Z,62.59
2023-04-06T05:55:04.247Z,61.97
2023-04-06T05:57:32.099Z,61.44
2023-04-06T06:00:00.446Z,61.06
2023-04-06T06:02:34.037Z,60.82
2023-04-06T06:05:01.952Z,60.35
2023-04-06T06:07:29.792Z,60.56
2023-04-06T06:09:59.151Z,60.48
2023-04-06T06:12:27.038Z,59.90
2023-04-06T06:14:55.517Z,59.64
2023-04-06T06:17:23.763Z,59.60
2023-04-06T06:19:51.760Z,59.79
2023-04-06T06:22:19.652Z,59.86
2023-04-06T06:24:47.570Z,59.70
2023-04-06T06:27:15.617Z,59.51
2023-04-06T06:29:43.592Z,59.39
2023-04-06T06:32:11.711Z,59.75
2023-04-06T06:34:39.464Z,59.59
2023-04-06T06:37:07.261Z,58.78
2023-04-06T06:39:35.178Z,58.98
2023-04-06T06:42:03.345Z,59.22
2023-04-06T06:44:31.113Z,59.04
2023-04-06T06:47:00.445Z,59.75
2023-04-06T06:49:29.864Z,59.79
2023-04-06T06:51:57.839Z,59.42
2023-04-06T06:54:25.793Z,59.60
2023-04-06T06:56:53.578Z,58.90
2023-04-06T06:59:21.760Z,58.78
2023-04-06T07:01:51.277Z,58.12
2023-04-06T07:04:20.172Z,57.89
2023-04-06T07:06:48.073Z,57.91
2023-04-06T07:09:16.021Z,57.36
2023-04-06T07:11:43.962Z,57.77
2023-04-06T07:14:12.995Z,57.42
2023-04-06T07:16:40.964Z,57.61
2023-04-06T07:19:10.636Z,57.64
2023-04-06T07:21:38.615Z,57.63
2023-04-06T07:24:06.978Z,57.92
2023-04-06T07:26:35.052Z,57.93
2023-04-06T07:29:03.025Z,58.08
2023-04-06T07:31:31.246Z,58.16
2023-04-06T07:33:59.731Z,57.87
2023-04-06T07:36:27.810Z,58.04
2023-04-06T07:38:55.630Z,58.08
2023-04-06T07:41:24.455Z,58.21
2023-04-06T07:43:52.332Z,58.49
2023-04-06T07:46:20.207Z,58.45
2023-04-06T07:48:48.027Z,58.17
2023-04-06T07:51:17.550Z,57.96
2023-04-06T07:53:45.879Z,58.06
2023-04-06T07:56:13.749Z,57.90
2023-04-06T07:58:42.200Z,57.67
2023-04-06T08:01:10.585Z,57.79
2023-04-06T08:03:38.691Z,58.43
2023-04-06T08:06:08.319Z,59.27
2023-04-06T08:08:36.289Z,60.49
2023-04-06T08:11:04.498Z,60.72
2023-04-06T08:13:32.434Z,61.79
2023-04-06T08:16:01.375Z,62.03
2023-04-06T08:18:31.052Z,62.23
2023-04-06T08:20:58.981Z,62.18
2023-04-06T08:23:26.904Z,61.61
2023-04-06T08:26:05.283Z,61.52
2023-04-06T08:28:35.709Z,61.54
2023-04-06T08:31:07.534Z,61.59
2023-04-06T08:33:40.420Z,61.80
2023-04-06T08:36:13.319Z,61.81
2023-04-06T08:38:42.430Z,61.72
2023-04-06T08:41:12.157Z,62.05
2023-04-06T08:43:45.366Z,62.46
2023-04-06T08:46:14.926Z,63.06
2023-04-06T08:48:47.346Z,63.55
2023-04-06T08:51:16.207Z,63.88
2023-04-06T08:53:44.234Z,64.62
2023-04-06T08:56:13.163Z,65.22
2023-04-06T08:58:41.999Z,65.68
2023-04-06T09:01:13.601Z,66.22
2023-04-06T09:03:42.290Z,66.77
2023-04-06T09:06:10.697Z,67.26
2023-04-06T09:08:41.394Z,68.15
2023-04-06T09:11:10.271Z,68.76
2023-04-06T09:13:56.116Z,69.42
2023-04-06T09:16:24.518Z,69.36
2023-04-06T09:18:52.637Z,69.32
2023-04-06T09:21:22.864Z,69.34
2023-04-06T09:24:03.153Z,69.72
2023-04-06T09:26:31.562Z,69.54
2023-04-06T09:29:02.240Z,69.13
2023-04-06T09:31:34.433Z,69.74
2023-04-06T09:34:03.412Z,70.20
2023-04-06T09:36:37.432Z,70.54
2023-04-06T09:39:05.937Z,71.23
2023-04-06T09:41:36.606Z,71.76
2023-04-06T09:44:12.638Z,72.57
2023-04-06T09:46:58.034Z,73.17
2023-04-06T09:49:32.632Z,73.37
2023-04-06T09:52:02.910Z,72.92
2023-04-06T09:54:32.566Z,73.29
2023-04-06T09:57:30.073Z,73.67
2023-04-06T10:00:10.746Z,74.03
2023-04-06T10:03:01.069Z,74.27
2023-04-06T10:05:38.938Z,74.66
2023-04-06T10:08:17.537Z,74.39
2023-04-06T10:10:46.070Z,74.31
2023-04-06T10:13:13.920Z,74.39
2023-04-06T10:15:43.519Z,73.80
2023-04-06T10:18:12.009Z,73.92
2023-04-06T10:20:51.984Z,74.32
2023-04-06T10:23:21.203Z,75.04
2023-04-06T10:26:00.047Z,75.38
2023-04-06T10:28:37.088Z,76.23
2023-04-06T10:31:08.286Z,76.68
2023-04-06T10:33:36.363Z,76.92
2023-04-06T10:36:15.903Z,77.43
2023-04-06T10:38:43.825Z,77.57
2023-04-06T10:41:13.280Z,77.15
2023-04-06T10:43:42.622Z,77.32
2023-04-06T10:46:12.985Z,77.47
2023-04-06T10:48:42.496Z,77.82
2023-04-06T10:51:15.000Z,77.50
2023-04-06T10:53:45.494Z,77.08
2023-04-06T10:56:15.578Z,76.74
2023-04-06T10:58:50.741Z,76.92
2023-04-06T11:01:21.224Z,77.15
2023-04-06T11:03:53.297Z,77.29
2023-04-06T11:06:24.110Z,76.75
2023-04-06T11:08:52.660Z,76.53
2023-04-06T11:11:22.604Z,76.59
2023-04-06T11:13:54.271Z,76.72
2023-04-06T11:16:24.362Z,76.66
2023-04-06T11:18:59.219Z,76.71
2023-04-06T11:21:34.548Z,76.83
2023-04-06T11:24:12.847Z,76.14
2023-04-06T11:26:42.866Z,76.18
2023-04-06T11:29:11.932Z,76.23
2023-04-06T11:32:01.409Z,76.27
2023-04-06T11:34:31.377Z,76.18
2023-04-06T11:37:05.895Z,76.24
2023-04-06T11:39:44.435Z,76.21
2023-04-06T11:42:12.239Z,75.81
2023-04-06T11:44:43.792Z,75.59
2023-04-06T11:47:12.516Z,75.47
2023-04-06T11:49:43.296Z,75.35
2023-04-06T11:52:19.792Z,75.46
2023-04-06T11:54:49.407Z,75.53
2023-04-06T11:57:18.904Z,74.93
2023-04-06T11:59:46.899Z,74.63
2023-04-06T12:02:14.959Z,73.96
2023-04-06T12:04:42.973Z,73.58
2023-04-06T12:07:11.384Z,73.18
2023-04-06T12:09:56.223Z,73.65
2023-04-06T12:12:24.029Z,73.37
2023-04-06T12:14:51.913Z,73.02
2023-04-06T12:17:22.084Z,73.22
2023-04-06T12:20:05.185Z,73.19
2023-04-06T12:22:41.758Z,73.35
2023-04-06T12:25:09.826Z,73.41
2023-04-06T12:27:37.666Z,73.40
2023-04-06T12:30:06.486Z,73.61
2023-04-06T12:32:34.258Z,73.73
2023-04-06T12:35:02.208Z,73.73
2023-04-06T12:37:30.403Z,73.97
2023-04-06T12:39:58.296Z,74.25
2023-04-06T12:42:26.634Z,74.70
2023-04-06T12:44:54.613Z,75.09
2023-04-06T12:47:23.945Z,75.19
2023-04-06T12:49:51.831Z,75.10
2023-04-06T12:52:19.720Z,75.03
2023-04-06T12:54:50.071Z,75.63
2023-04-06T12:57:19.242Z,75.70
2023-04-06T12:59:47.432Z,75.93
2023-04-06T13:02:16.107Z,76.09
2023-04-06T13:04:44.074Z,76.11
2023-04-06T13:07:11.940Z,76.16
2023-04-06T13:09:39.760Z,76.07
2023-04-06T13:12:08.069Z,76.44
2023-04-06T13:14:36.084Z,76.65
2023-04-06T13:17:03.874Z,76.55
2023-04-06T13:19:32.577Z,77.16
2023-04-06T13:22:00.446Z,77.60
2023-04-06T13:24:28.319Z,78.08
2023-04-06T13:26:56.613Z,78.50
2023-04-06T13:29:24.476Z,78.78
2023-04-06T13:31:52.297Z,78.89
2023-04-06T13:34:20.256Z,79.23
2023-04-06T13:36:48.096Z,79.37
2023-04-06T13:39:16.269Z,79.63
2023-04-06T13:41:44.152Z,79.56
2023-04-06T13:44:11.980Z,79.63
2023-04-06T13:46:39.942Z,79.87
2023-04-06T13:49:07.781Z,79.95
2023-04-06T13:51:36.489Z,80.17
2023-04-06T13:54:04.558Z,80.61
2023-04-06T13:56:33.558Z,80.80
2023-04-06T13:59:01.814Z,81.15
2023-04-06T14:01:29.786Z,81.29
2023-04-06T14:03:57.741Z,81.32
2023-04-06T14:06:31.377Z,81.37
2023-04-06T14:09:00.558Z,81.66
2023-04-06T14:11:29.050Z,82.01
2023-04-06T14:13:58.492Z,82.18
2023-04-06T14:16:27.654Z,82.35
2023-04-06T14:18:56.361Z,82.40
2023-04-06T14:21:24.546Z,82.48
2023-04-06T14:23:53.667Z,82.69
2023-04-06T14:26:22.189Z,82.77
2023-04-06T14:28:50.466Z,82.73
2023-04-06T14:31:18.541Z,82.85
2023-04-06T14:33:46.609Z,82.92
2023-04-06T14:36:14.707Z,83.02
2023-04-06T14:38:44.171Z,83.09
2023-04-06T14:41:19.520Z,83.06
2023-04-06T14:43:48.432Z,82.79
2023-04-06T14:46:19.306Z,82.82
2023-04-06T14:48:48.221Z,83.07
2023-04-06T14:51:16.152Z,83.12
2023-04-06T14:53:44.350Z,83.14
2023-04-06T14:56:13.018Z,83.11
2023-04-06T14:58:41.025Z,82.91
2023-04-06T15:01:09.534Z,82.83
2023-04-06T15:03:37.897Z,82.85
2023-04-06T15:06:06.521Z,82.68
2023-04-06T15:08:35.486Z,82.90
2023-04-06T15:11:03.454Z,82.95
2023-04-06T15:13:31.257Z,83.00
2023-04-06T15:16:01.789Z,82.96
2023-04-06T15:18:29.943Z,83.07
2023-04-06T15:20:57.789Z,83.08
2023-04-06T15:23:25.989Z,83.03
2023-04-06T15:25:53.776Z,82.97
2023-04-06T15:28:21.747Z,83.10
2023-04-06T15:30:49.712Z,83.26
2023-04-06T15:33:18.415Z,83.39
2023-04-06T15:35:47.043Z,83.52
2023-04-06T15:38:15.888Z,83.68
2023-04-06T15:40:48.458Z,83.78
2023-04-06T15:43:16.796Z,83.68
2023-04-06T15:45:44.711Z,83.76
2023-04-06T15:48:12.783Z,83.86
2023-04-06T15:50:40.628Z,83.97
2023-04-06T15:53:10.743Z,84.06
2023-04-06T15:55:38.447Z,83.92
2023-04-06T15:58:07.599Z,84.03
2023-04-06T16:00:35.542Z,84.13
2023-04-06T16:03:03.683Z,84.49
2023-04-06T16:05:34.592Z,84.77
2023-04-06T16:08:02.669Z,84.90
2023-04-06T16:10:30.746Z,85.09
2023-04-06T16:12:58.524Z,85.24
2023-04-06T16:15:26.630Z,85.47
2023-04-06T16:17:54.436Z,85.64
2023-04-06T16:20:22.258Z,85.82
2023-04-06T16:22:50.006Z,86.09
2023-04-06T16:25:18.041Z,86.23
2023-04-06T16:27:46.295Z,86.29
2023-04-06T16:30:14.543Z,86.39
2023-04-06T16:32:43.476Z,86.58
2023-04-06T16:35:11.317Z,86.69
2023-04-06T16:37:39.614Z,86.61
2023-04-06T16:40:10.085Z,86.82
2023-04-06T16:42:37.996Z,86.98
2023-04-06T16:45:06.868Z,87.18
2023-04-06T16:47:34.923Z,87.39
2023-04-06T16:50:05.143Z,87.45
2023-04-06T16:52:35.765Z,87.57
2023-04-06T16:55:03.771Z,87.78
2023-04-06T16:57:31.615Z,87.81
2023-04-06T17:00:00.535Z,87.87
2023-04-06T17:02:28.569Z,88.03
2023-04-06T17:07:38.524Z,88.03
2023-04-06T17:10:21.447Z,88.04
2023-04-06T17:12:57.102Z,88.10
2023-04-06T17:15:26.458Z,88.09
2023-04-06T17:17:54.488Z,88.08
2023-04-06T17:20:22.450Z,88.21
2023-04-06T17:22:50.360Z,88.35
2023-04-06T17:25:18.535Z,88.43
2023-04-06T17:27:46.428Z,88.52
2023-04-06T17:30:17.137Z,88.59
2023-04-06T17:32:47.424Z,88.72
2023-04-06T17:35:18.284Z,88.75
2023-04-06T17:37:46.018Z,88.78
2023-04-06T17:40:14.331Z,88.84
2023-04-06T17:49:27.274Z,89.12
2023-04-06T17:51:55.031Z,89.03
2023-04-06T17:54:22.895Z,89.03
2023-04-06T17:56:53.514Z,89.07
2023-04-06T17:59:21.487Z,89.14
2023-04-06T18:01:49.336Z,89.21
2023-04-06T18:04:17.124Z,89.18
2023-04-06T18:06:45.429Z,89.26
2023-04-06T18:09:13.343Z,89.33
2023-04-06T18:11:42.524Z,89.39
2023-04-06T18:14:12.700Z,89.54
2023-04-06T18:16:41.354Z,89.67
2023-04-06T18:19:09.180Z,89.76
2023-04-06T18:21:37.019Z,89.82
2023-04-06T18:24:06.634Z,89.87
2023-04-06T18:26:35.731Z,90.06
2023-04-06T18:29:06.297Z,90.14
2023-04-06T18:34:07.531Z,90.17
2023-04-06T18:36:35.788Z,90.19
2023-04-06T18:39:05.130Z,90.32
2023-04-06T18:41:32.896Z,90.39
2023-04-06T18:44:01.369Z,90.36
2023-04-06T18:46:29.541Z,90.42
2023-04-06T18:48:57.425Z,90.45
2023-04-06T18:51:32.244Z,90.44
2023-04-06T18:54:04.636Z,90.40
2023-04-06T18:56:39.557Z,90.45
2023-04-06T18:59:15.246Z,90.51
2023-04-06T19:01:51.232Z,90.52
2023-04-06T19:04:21.041Z,90.56
2023-04-06T19:06:49.491Z,90.57
2023-04-06T19:09:18.441Z,90.58
2023-04-06T19:11:46.766Z,90.61
2023-04-06T19:14:17.798Z,90.52
2023-04-06T19:16:52.730Z,90.59
2023-04-06T19:19:22.193Z,90.74
2023-04-06T19:21:53.567Z,90.82
2023-04-06T19:24:24.819Z,90.82
2023-04-06T19:26:52.986Z,90.89
2023-04-06T19:29:21.268Z,90.97
2023-04-06T19:31:50.362Z,90.96
2023-04-06T19:34:18.622Z,90.97
2023-04-06T19:36:48.411Z,90.97
2023-04-06T19:39:17.775Z,90.97
2023-04-06T19:41:45.813Z,90.93
2023-04-06T19:44:13.837Z,90.95
2023-04-06T19:46:42.893Z,91.12
2023-04-06T19:49:10.923Z,91.21
2023-04-06T19:51:38.902Z,91.26
2023-04-06T19:54:08.376Z,91.24
2023-04-06T19:56:36.158Z,91.37
2023-04-06T19:59:04.024Z,91.44
2023-04-06T20:01:31.910Z,91.53
2023-04-06T20:04:00.036Z,91.63
2023-04-06T20:06:29.902Z,91.64
2023-04-06T20:08:57.659Z,91.76
2023-04-06T20:11:25.449Z,91.80
2023-04-06T20:13:53.351Z,91.74
2023-04-06T20:16:22.170Z,91.90
2023-04-06T20:18:49.946Z,91.83
2023-04-06T20:21:17.763Z,91.85
2023-04-06T20:23:45.599Z,91.78
2023-04-06T20:26:13.260Z,91.93
2023-04-06T20:28:41.455Z,92.02
2023-04-06T20:31:09.416Z,92.00
2023-04-06T20:33:37.293Z,92.06
2023-04-06T20:36:05.266Z,92.01
2023-04-06T20:38:33.950Z,92.01
2023-04-06T20:41:02.160Z,92.11
2023-04-06T20:43:31.597Z,92.04
2023-04-06T20:45:59.856Z,92.07
2023-04-06T20:48:30.714Z,92.03
2023-04-06T20:50:59.790Z,92.12
2023-04-06T20:53:27.873Z,92.16
2023-04-06T20:55:55.598Z,92.24
2023-04-06T20:58:24.695Z,92.39
2023-04-06T21:00:52.677Z,92.42
2023-04-06T21:03:20.716Z,92.42
2023-04-06T21:05:57.444Z,92.41
2023-04-06T21:08:25.281Z,92.49
2023-04-06T21:10:52.966Z,92.49
2023-04-06T21:13:20.778Z,92.42
2023-04-06T21:15:48.910Z,92.42
2023-04-06T21:18:16.834Z,92.47
2023-04-06T21:20:44.778Z,92.49
2023-04-06T21:23:12.671Z,92.43
2023-04-06T21:25:40.607Z,92.42
2023-04-06T21:28:08.460Z,92.45
2023-04-06T21:30:37.330Z,92.48
2023-04-06T21:33:06.069Z,92.55
2023-04-06T21:35:33.952Z,92.54
2023-04-06T21:38:01.668Z,92.56
2023-04-06T21:40:29.541Z,92.51
2023-04-06T21:42:57.598Z,92.54
2023-04-06T21:45:25.404Z,92.51
2023-04-06T21:47:53.151Z,92.39
2023-04-06T21:50:21.214Z,92.45
2023-04-06T21:52:49.060Z,92.44
2023-04-06T21:55:16.976Z,92.47
2023-04-06T21:57:46.232Z,92.47
2023-04-06T22:00:15.098Z,92.36
2023-04-06T22:02:43.019Z,92.33
2023-04-06T22:05:11.327Z,92.41
2023-04-06T22:07:39.135Z,92.48
2023-04-06T22:10:07.329Z,92.47
2023-04-06T22:12:35.298Z,92.59
2023-04-06T22:15:03.124Z,92.60
2023-04-06T22:17:31.647Z,92.55
2023-04-06T22:19:59.506Z,92.62
2023-04-06T22:22:27.279Z,92.65
2023-04-06T22:24:56.713Z,92.66
2023-04-06T22:27:24.610Z,92.68
2023-04-06T22:29:52.560Z,92.71
2023-04-06T22:32:20.418Z,92.68
2023-04-06T22:34:48.296Z,92.63
2023-04-06T22:37:16.042Z,92.74
2023-04-06T22:39:44.112Z,92.73
2023-04-06T22:42:11.894Z,92.73
2023-04-06T22:44:39.600Z,92.75
2023-04-06T22:47:07.401Z,92.74
2023-04-06T22:49:35.194Z,92.79
2023-04-06T22:52:02.951Z,92.76
2023-04-06T22:54:30.946Z,92.72
2023-04-06T22:56:58.708Z,92.72
2023-04-06T22:59:26.423Z,92.66
2023-04-06T23:01:54.434Z,92.70
2023-04-06T23:04:22.841Z,92.74
2023-04-06T23:06:51.152Z,92.80
2023-04-06T23:09:19.295Z,92.89
2023-04-06T23:11:47.264Z,92.83
2023-04-06T23:14:16.050Z,92.78
2023-04-06T23:16:44.023Z,92.88
2023-04-06T23:19:11.889Z,92.91
2023-04-06T23:21:39.771Z,92.93
2023-04-06T23:24:07.542Z,92.98
2023-04-06T23:26:35.370Z,92.99
2023-04-06T23:29:03.109Z,92.92
2023-04-06T23:31:31.090Z,92.98
2023-04-06T23:33:58.974Z,92.97
2023-04-06T23:36:27.031Z,93.04
2023-04-06T23:38:56.422Z,93.04
2023-04-06T23:41:24.622Z,93.03
2023-04-06T23:43:52.274Z,93.06
2023-04-06T23:46:21.630Z,93.02
2023-04-06T23:48:49.502Z,93.08
2023-04-06T23:51:17.412Z,93.07
2023-04-06T23:53:46.363Z,93.16
2023-04-06T23:56:14.270Z,93.14
2023-04-06T23:58:41.926Z,93.07
